sensor_id;sensor_type;location;lat;lon;timestamp;pressure;altitude;pressure_sealevel;temperature;humidity
39309;BME280;26019;47.510;19.122;2022-08-03T00:03:25;100313.75;;;20.74;89.82
39309;BME280;26019;47.510;19.122;2022-08-03T00:13:27;100297.63;;;20.46;87.24
39309;BME280;26019;47.510;19.122;2022-08-03T00:23:31;100306.41;;;20.44;90.91
39309;BME280;26019;47.510;19.122;2022-08-03T00:33:57;100327.28;;;20.28;90.89
39309;BME280;26019;47.510;19.122;2022-08-03T00:44:04;100326.50;;;20.07;93.07
39309;BME280;26019;47.510;19.122;2022-08-03T00:54:05;100321.75;;;19.96;93.40
39309;BME280;26019;47.510;19.122;2022-08-03T01:04:07;100334.53;;;19.83;94.15
39309;BME280;26019;47.510;19.122;2022-08-03T01:14:15;100337.81;;;19.68;96.19
39309;BME280;26019;47.510;19.122;2022-08-03T01:35:13;100338.34;;;19.55;97.60
39309;BME280;26019;47.510;19.122;2022-08-03T01:45:20;100337.84;;;19.47;98.01
39309;BME280;26019;47.510;19.122;2022-08-03T01:55:25;100327.81;;;19.36;99.85
39309;BME280;26019;47.510;19.122;2022-08-03T02:05:31;100331.66;;;19.28;100.00
39309;BME280;26019;47.510;19.122;2022-08-03T02:15:38;100325.41;;;19.09;100.00
39309;BME280;26019;47.510;19.122;2022-08-03T02:25:44;100328.22;;;19.05;100.00
39309;BME280;26019;47.510;19.122;2022-08-03T02:35:48;100321.94;;;18.87;100.00
39309;BME280;26019;47.510;19.122;2022-08-03T02:45:52;100333.53;;;18.81;100.00
39309;BME280;26019;47.510;19.122;2022-08-03T02:55:57;100338.22;;;18.73;100.00
39309;BME280;26019;47.510;19.122;2022-08-03T03:06:01;100338.34;;;18.70;100.00
39309;BME280;26019;47.510;19.122;2022-08-03T03:16:07;100336.16;;;18.59;100.00
39309;BME280;26019;47.510;19.122;2022-08-03T03:26:12;100337.25;;;18.53;100.00
39309;BME280;26019;47.510;19.122;2022-08-03T03:36:14;100348.06;;;18.44;100.00
39309;BME280;26019;47.510;19.122;2022-08-03T03:46:16;100342.59;;;18.50;100.00
39309;BME280;26019;47.510;19.122;2022-08-03T03:56:18;100342.81;;;18.44;100.00
39309;BME280;26019;47.510;19.122;2022-08-03T04:06:19;100348.13;;;18.64;100.00
39309;BME280;26019;47.510;19.122;2022-08-03T04:16:52;100355.28;;;18.83;100.00
39309;BME280;26019;47.510;19.122;2022-08-03T04:26:56;100375.91;;;18.91;100.00
39309;BME280;26019;47.510;19.122;2022-08-03T04:37:04;100374.38;;;19.07;100.00
39309;BME280;26019;47.510;19.122;2022-08-03T04:47:13;100374.47;;;19.27;100.00
39309;BME280;26019;47.510;19.122;2022-08-03T04:57:16;100390.50;;;19.62;100.00
39309;BME280;26019;47.510;19.122;2022-08-03T05:07:23;100396.38;;;19.88;100.00
39309;BME280;26019;47.510;19.122;2022-08-03T05:17:25;100406.50;;;20.18;100.00
39309;BME280;26019;47.510;19.122;2022-08-03T05:27:27;100401.69;;;20.47;100.00
39309;BME280;26019;47.510;19.122;2022-08-03T05:37:30;100429.00;;;21.00;100.00
39309;BME280;26019;47.510;19.122;2022-08-03T05:47:33;100430.38;;;21.44;99.91
39309;BME280;26019;47.510;19.122;2022-08-03T05:57:36;100426.69;;;21.83;97.86
39309;BME280;26019;47.510;19.122;2022-08-03T06:07:38;100420.47;;;22.02;92.89
39309;BME280;26019;47.510;19.122;2022-08-03T06:17:49;100445.22;;;22.65;89.76
39309;BME280;26019;47.510;19.122;2022-08-03T06:27:52;100442.91;;;23.07;87.16
39309;BME280;26019;47.510;19.122;2022-08-03T06:37:57;100441.59;;;23.77;83.67
39309;BME280;26019;47.510;19.122;2022-08-03T06:48:04;100445.50;;;24.14;76.87
39309;BME280;26019;47.510;19.122;2022-08-03T06:58:06;100439.53;;;24.69;72.27
39309;BME280;26019;47.510;19.122;2022-08-03T07:08:08;100451.56;;;25.02;68.68
39309;BME280;26019;47.510;19.122;2022-08-03T07:18:11;100443.91;;;25.52;64.11
39309;BME280;26019;47.510;19.122;2022-08-03T07:28:16;100450.50;;;26.11;61.84
39309;BME280;26019;47.510;19.122;2022-08-03T07:38:18;100455.72;;;26.38;60.11
39309;BME280;26019;47.510;19.122;2022-08-03T07:48:22;100444.81;;;26.67;58.70
39309;BME280;26019;47.510;19.122;2022-08-03T07:58:24;100439.53;;;27.05;53.89
39309;BME280;26019;47.510;19.122;2022-08-03T08:08:31;100435.88;;;27.54;50.86
39309;BME280;26019;47.510;19.122;2022-08-03T08:18:32;100444.25;;;27.84;49.94
39309;BME280;26019;47.510;19.122;2022-08-03T08:28:40;100449.72;;;28.05;47.32
39309;BME280;26019;47.510;19.122;2022-08-03T08:38:42;100443.19;;;28.55;45.25
39309;BME280;26019;47.510;19.122;2022-08-03T08:48:47;100432.19;;;28.82;45.17
39309;BME280;26019;47.510;19.122;2022-08-03T08:58:59;100423.53;;;29.55;43.11
39309;BME280;26019;47.510;19.122;2022-08-03T09:09:05;100417.00;;;29.05;41.74
39309;BME280;26019;47.510;19.122;2022-08-03T09:19:12;100429.31;;;29.39;42.72
39309;BME280;26019;47.510;19.122;2022-08-03T09:29:24;100403.22;;;30.47;39.84
39309;BME280;26019;47.510;19.122;2022-08-03T09:39:26;100410.47;;;32.02;35.39
39309;BME280;26019;47.510;19.122;2022-08-03T09:49:58;100410.25;;;33.42;31.47
39309;BME280;26019;47.510;19.122;2022-08-03T10:00:14;100391.44;;;32.61;31.75
39309;BME280;26019;47.510;19.122;2022-08-03T10:10:21;100380.31;;;33.81;30.36
39309;BME280;26019;47.510;19.122;2022-08-03T10:20:37;100374.16;;;34.24;30.41
39309;BME280;26019;47.510;19.122;2022-08-03T10:30:43;100373.19;;;34.33;29.47
39309;BME280;26019;47.510;19.122;2022-08-03T10:40:49;100373.84;;;31.27;34.76
39309;BME280;26019;47.510;19.122;2022-08-03T10:51:00;100348.13;;;31.26;35.42
39309;BME280;26019;47.510;19.122;2022-08-03T11:01:07;100347.00;;;34.19;31.36
39309;BME280;26019;47.510;19.122;2022-08-03T11:31:51;100326.53;;;41.79;18.59
39309;BME280;26019;47.510;19.122;2022-08-03T11:41:53;100331.19;;;40.17;19.48
39309;BME280;26019;47.510;19.122;2022-08-03T11:51:54;100319.19;;;40.33;21.37
39309;BME280;26019;47.510;19.122;2022-08-03T12:02:10;100310.38;;;41.39;18.65
39309;BME280;26019;47.510;19.122;2022-08-03T12:12:15;100306.91;;;42.98;15.91
39309;BME280;26019;47.510;19.122;2022-08-03T12:22:32;100299.06;;;46.37;13.81
39309;BME280;26019;47.510;19.122;2022-08-03T12:32:35;100287.50;;;44.54;14.49
39309;BME280;26019;47.510;19.122;2022-08-03T12:42:38;100286.03;;;49.03;10.40
39309;BME280;26019;47.510;19.122;2022-08-03T12:52:42;100269.22;;;46.47;12.36
39309;BME280;26019;47.510;19.122;2022-08-03T13:03:04;100270.31;;;47.52;12.08
39309;BME280;26019;47.510;19.122;2022-08-03T13:13:39;100263.25;;;47.29;11.69
39309;BME280;26019;47.510;19.122;2022-08-03T13:23:45;100244.31;;;47.50;11.14
39309;BME280;26019;47.510;19.122;2022-08-03T13:33:48;100251.66;;;51.28;9.73
39309;BME280;26019;47.510;19.122;2022-08-03T13:43:51;100232.88;;;46.64;11.48
39309;BME280;26019;47.510;19.122;2022-08-03T13:54:13;100230.72;;;49.16;10.01
39309;BME280;26019;47.510;19.122;2022-08-03T14:04:15;100227.50;;;53.54;8.35
39309;BME280;26019;47.510;19.122;2022-08-03T14:14:23;100204.56;;;47.42;10.96
39309;BME280;26019;47.510;19.122;2022-08-03T14:24:26;100195.91;;;36.36;21.22
39309;BME280;26019;47.510;19.122;2022-08-03T14:34:28;100185.06;;;34.94;22.96
39309;BME280;26019;47.510;19.122;2022-08-03T14:44:32;100178.75;;;33.96;25.50
39309;BME280;26019;47.510;19.122;2022-08-03T14:54:34;100166.38;;;45.39;15.22
39309;BME280;26019;47.510;19.122;2022-08-03T15:04:36;100186.41;;;45.73;12.13
39309;BME280;26019;47.510;19.122;2022-08-03T15:14:38;100176.19;;;47.21;11.00
39309;BME280;26019;47.510;19.122;2022-08-03T15:24:42;100169.38;;;47.51;10.70
39309;BME280;26019;47.510;19.122;2022-08-03T15:35:03;100172.50;;;45.75;11.31
39309;BME280;26019;47.510;19.122;2022-08-03T15:45:06;100165.38;;;45.74;11.23
39309;BME280;26019;47.510;19.122;2022-08-03T15:55:11;100158.28;;;46.07;11.17
39309;BME280;26019;47.510;19.122;2022-08-03T16:05:19;100168.00;;;45.52;12.54
39309;BME280;26019;47.510;19.122;2022-08-03T16:15:21;100144.25;;;44.18;13.51
39309;BME280;26019;47.510;19.122;2022-08-03T16:25:23;100134.69;;;43.61;13.11
39309;BME280;26019;47.510;19.122;2022-08-03T16:35:25;100149.06;;;43.49;13.91
39309;BME280;26019;47.510;19.122;2022-08-03T16:45:27;100141.69;;;42.70;15.16
39309;BME280;26019;47.510;19.122;2022-08-03T16:55:38;100152.69;;;41.48;15.59
39309;BME280;26019;47.510;19.122;2022-08-03T17:05:54;100138.41;;;39.48;18.46
39309;BME280;26019;47.510;19.122;2022-08-03T17:16:03;100155.63;;;37.11;20.63
39309;BME280;26019;47.510;19.122;2022-08-03T17:26:13;100170.09;;;34.44;24.39
39309;BME280;26019;47.510;19.122;2022-08-03T17:36:24;100173.75;;;34.09;25.41
39309;BME280;26019;47.510;19.122;2022-08-03T17:46:48;100183.34;;;31.28;30.06
39309;BME280;26019;47.510;19.122;2022-08-03T17:57:10;100176.22;;;30.32;31.95
39309;BME280;26019;47.510;19.122;2022-08-03T18:07:39;100180.28;;;29.37;33.92
39309;BME280;26019;47.510;19.122;2022-08-03T18:17:44;100193.56;;;28.63;35.64
39309;BME280;26019;47.510;19.122;2022-08-03T18:28:04;100197.22;;;27.97;37.07
39309;BME280;26019;47.510;19.122;2022-08-03T18:38:11;100212.72;;;27.57;38.39
39309;BME280;26019;47.510;19.122;2022-08-03T18:58:56;100218.47;;;27.06;40.51
39309;BME280;26019;47.510;19.122;2022-08-03T19:09:10;100230.19;;;26.67;43.55
39309;BME280;26019;47.510;19.122;2022-08-03T19:19:20;100235.19;;;26.48;45.61
39309;BME280;26019;47.510;19.122;2022-08-03T19:29:25;100246.59;;;26.24;45.45
39309;BME280;26019;47.510;19.122;2022-08-03T19:39:48;100247.03;;;26.18;48.51
39309;BME280;26019;47.510;19.122;2022-08-03T19:49:57;100258.22;;;25.97;51.26
39309;BME280;26019;47.510;19.122;2022-08-03T20:00:11;100264.44;;;25.59;53.57
39309;BME280;26019;47.510;19.122;2022-08-03T20:10:16;100258.81;;;25.38;51.72
39309;BME280;26019;47.510;19.122;2022-08-03T20:20:21;100258.19;;;25.21;51.89
39309;BME280;26019;47.510;19.122;2022-08-03T20:30:25;100267.81;;;25.09;52.22
39309;BME280;26019;47.510;19.122;2022-08-03T20:40:29;100260.38;;;25.01;52.00
39309;BME280;26019;47.510;19.122;2022-08-03T20:50:30;100262.19;;;24.88;51.63
39309;BME280;26019;47.510;19.122;2022-08-03T21:00:32;100268.75;;;24.68;52.98
39309;BME280;26019;47.510;19.122;2022-08-03T21:10:38;100252.09;;;24.40;53.54
39309;BME280;26019;47.510;19.122;2022-08-03T21:20:43;100277.44;;;24.15;54.40
39309;BME280;26019;47.510;19.122;2022-08-03T21:30:46;100285.38;;;24.00;54.31
39309;BME280;26019;47.510;19.122;2022-08-03T21:40:49;100288.28;;;23.81;56.88
39309;BME280;26019;47.510;19.122;2022-08-03T21:50:52;100277.09;;;23.49;58.47
39309;BME280;26019;47.510;19.122;2022-08-03T22:00:54;100304.66;;;23.29;59.95
39309;BME280;26019;47.510;19.122;2022-08-03T22:10:57;100294.31;;;23.09;61.93
39309;BME280;26019;47.510;19.122;2022-08-03T22:21:06;100308.22;;;22.97;62.75
39309;BME280;26019;47.510;19.122;2022-08-03T22:31:08;100316.25;;;22.79;65.23
39309;BME280;26019;47.510;19.122;2022-08-03T22:41:30;100309.06;;;22.51;66.60
39309;BME280;26019;47.510;19.122;2022-08-03T22:51:32;100318.75;;;22.34;69.25
39309;BME280;26019;47.510;19.122;2022-08-03T23:01:36;100310.13;;;22.15;70.39
39309;BME280;26019;47.510;19.122;2022-08-03T23:11:42;100325.16;;;22.13;70.93
39309;BME280;26019;47.510;19.122;2022-08-03T23:21:47;100323.78;;;22.05;68.83
39309;BME280;26019;47.510;19.122;2022-08-03T23:32:03;100344.16;;;22.02;67.96
39309;BME280;26019;47.510;19.122;2022-08-03T23:42:07;100342.16;;;21.89;68.20
39309;BME280;26019;47.510;19.122;2022-08-03T23:52:25;100333.41;;;21.73;73.88
